Time;durP1;ratioP1;P1;durP2;ratioP2;P2;SDS_P1;SDS_P2;PMS_P1;PMS_P2;Temp;Humidity;BMP_temperature;BMP_pressure;BME280_temperature;BME280_humidity;BME280_pressure;Samples;Min_cycle;Max_cycle;Signal;HPM_P1;HPM_P2
2021/07/06 00:00:21;;;;;;;14.27;3.67;;;14.90;93.10;;;;;;5053611;28;20369;-75
2021/07/06 00:02:49;;;;;;;11.07;2.72;;;14.90;93.10;;;;;;5053445;28;20511;-75
2021/07/06 00:05:15;;;;;;;11.25;3.05;;;14.80;93.10;;;;;;5053433;28;20033;-75
2021/07/06 00:07:41;;;;;;;13.15;3.45;;;14.80;93.00;;;;;;5053128;28;20043;-75
2021/07/06 00:10:08;;;;;;;15.95;4.00;;;14.80;93.20;;;;;;5053383;28;20043;-76
2021/07/06 00:12:34;;;;;;;13.75;2.90;;;14.70;93.40;;;;;;5053194;28;20530;-74
2021/07/06 00:15:00;;;;;;;12.07;2.95;;;14.70;93.50;;;;;;5053102;28;20028;-76
2021/07/06 00:17:25;;;;;;;14.43;3.50;;;14.70;93.20;;;;;;5052881;28;20162;-77
2021/07/06 00:19:51;;;;;;;13.27;3.42;;;14.70;92.90;;;;;;5052880;28;20115;-76
2021/07/06 00:22:18;;;;;;;12.00;3.10;;;14.70;92.80;;;;;;5052948;28;20021;-74
2021/07/06 00:24:45;;;;;;;18.00;3.63;;;14.70;92.80;;;;;;5045190;28;20478;-76
2021/07/06 00:27:11;;;;;;;11.30;3.08;;;14.70;93.00;;;;;;5072906;28;20089;-75
2021/07/06 00:29:36;;;;;;;19.10;3.55;;;14.70;93.20;;;;;;5072764;28;20056;-74
2021/07/06 00:32:03;;;;;;;13.95;3.97;;;14.60;93.20;;;;;;5072617;28;20021;-76
2021/07/06 00:34:29;;;;;;;10.88;3.22;;;14.60;93.40;;;;;;5072648;28;20016;-75
2021/07/06 00:36:54;;;;;;;14.80;3.20;;;14.60;93.30;;;;;;5072801;28;20562;-74
2021/07/06 00:39:20;;;;;;;12.55;3.25;;;14.60;93.30;;;;;;5072467;28;20020;-75
2021/07/06 00:41:46;;;;;;;15.73;3.40;;;14.60;93.60;;;;;;5072711;28;20017;-75
2021/07/06 00:44:16;;;;;;;16.42;3.15;;;14.60;93.20;;;;;;5072387;28;20079;-76
2021/07/06 00:46:42;;;;;;;;;;;14.60;92.90;;;;;;5073098;28;20074;-76
2021/07/06 00:49:08;;;;;;;16.85;3.35;;;14.60;92.90;;;;;;5072278;28;19908;-75
2021/07/06 00:51:35;;;;;;;10.98;3.10;;;14.60;92.90;;;;;;5072579;28;20515;-76
2021/07/06 00:54:01;;;;;;;13.65;4.10;;;14.50;92.60;;;;;;5072340;28;20017;-74
2021/07/06 00:56:26;;;;;;;15.60;3.63;;;14.50;92.20;;;;;;5072056;28;20395;-77
2021/07/06 00:58:52;;;;;;;14.93;4.28;;;14.60;92.00;;;;;;5072114;28;20033;-75
2021/07/06 01:01:18;;;;;;;11.32;3.42;;;14.60;91.70;;;;;;5072479;28;20036;-75
2021/07/06 01:03:44;;;;;;;10.02;2.70;;;14.60;91.70;;;;;;5072402;28;20095;-74
2021/07/06 01:06:11;;;;;;;12.82;4.22;;;14.50;92.00;;;;;;5072745;28;20094;-75
2021/07/06 01:08:36;;;;;;;14.82;3.78;;;14.50;91.90;;;;;;5071878;28;20021;-75
2021/07/06 01:11:03;;;;;;;16.95;3.40;;;14.40;91.80;;;;;;5072410;28;20083;-76
2021/07/06 01:13:29;;;;;;;15.48;3.40;;;14.40;91.80;;;;;;5070908;28;20439;-77
2021/07/06 01:15:55;;;;;;;10.23;3.13;;;14.40;91.80;;;;;;5072415;28;20565;-76
2021/07/06 01:18:21;;;;;;;14.43;3.75;;;14.40;91.80;;;;;;5071998;28;20024;-76
2021/07/06 01:20:53;;;;;;;14.02;2.97;;;14.40;91.70;;;;;;5071979;28;20395;-74
2021/07/06 01:23:21;;;;;;;11.95;3.58;;;14.50;91.40;;;;;;5072124;28;20044;-75
2021/07/06 01:25:51;;;;;;;11.85;3.17;;;14.50;92.10;;;;;;5056842;28;20594;-76
2021/07/06 01:28:16;;;;;;;13.80;3.25;;;14.40;91.80;;;;;;5051912;28;20025;-76
2021/07/06 01:30:42;;;;;;;17.17;4.82;;;14.50;91.80;;;;;;5052111;28;20037;-74
2021/07/06 01:33:08;;;;;;;15.57;3.53;;;14.60;91.40;;;;;;5051892;28;20025;-76
2021/07/06 01:35:34;;;;;;;17.17;4.63;;;14.60;91.20;;;;;;5052207;28;20033;-77
2021/07/06 01:38:03;;;;;;;16.27;4.22;;;14.70;91.00;;;;;;5035255;28;20025;-77
2021/07/06 01:40:30;;;;;;;15.85;3.22;;;14.60;90.60;;;;;;5032195;28;20442;-76
2021/07/06 01:42:56;;;;;;;19.35;3.80;;;14.60;91.00;;;;;;5031910;28;20057;-76
2021/07/06 01:45:27;;;;;;;13.05;4.32;;;14.60;90.90;;;;;;5032006;28;20033;-74
2021/07/06 01:47:55;;;;;;;13.30;3.65;;;14.60;90.90;;;;;;5031884;28;20105;-75
2021/07/06 01:50:27;;;;;;;13.65;3.25;;;14.60;90.90;;;;;;5031954;28;20018;-77
2021/07/06 01:52:56;;;;;;;14.20;3.28;;;14.60;91.00;;;;;;5031994;28;20053;-74
2021/07/06 01:55:28;;;;;;;14.83;3.67;;;14.60;90.80;;;;;;5032081;28;20061;-76
2021/07/06 01:57:55;;;;;;;14.38;2.88;;;14.60;90.70;;;;;;5031806;28;20116;-77
2021/07/06 02:00:23;;;;;;;13.90;3.70;;;14.70;90.50;;;;;;5031754;28;20036;-77
2021/07/06 02:02:49;;;;;;;14.98;2.90;;;14.70;90.70;;;;;;5031865;28;20358;-74
2021/07/06 02:05:18;;;;;;;15.20;3.55;;;14.60;90.60;;;;;;5032004;28;20071;-75
2021/07/06 02:07:45;;;;;;;13.80;3.53;;;14.60;90.90;;;;;;5033094;28;20081;-77
2021/07/06 02:10:13;;;;;;;12.60;3.47;;;14.80;90.10;;;;;;5035701;28;20075;-77
2021/07/06 02:12:40;;;;;;;14.02;3.13;;;14.80;89.80;;;;;;5035566;28;20018;-76
2021/07/06 02:15:08;;;;;;;13.52;3.10;;;14.80;90.00;;;;;;5035833;28;20056;-76
2021/07/06 02:17:33;;;;;;;13.00;3.10;;;14.80;90.00;;;;;;5035539;28;20029;-79
2021/07/06 02:19:59;;;;;;;10.05;2.55;;;14.90;89.30;;;;;;5035195;28;20029;-73
2021/07/06 02:22:25;;;;;;;15.63;2.92;;;14.90;89.80;;;;;;5035480;28;20208;-77
2021/07/06 02:24:50;;;;;;;10.02;3.22;;;14.90;90.40;;;;;;5035372;28;20037;-77
2021/07/06 02:27:16;;;;;;;11.45;3.38;;;14.90;90.10;;;;;;5035352;28;20107;-77
2021/07/06 02:29:42;;;;;;;16.98;3.13;;;14.80;90.30;;;;;;5035228;28;20497;-74
2021/07/06 02:32:08;;;;;;;10.98;3.28;;;14.80;90.50;;;;;;5035007;28;20064;-74
2021/07/06 02:34:34;;;;;;;12.25;3.05;;;14.80;90.40;;;;;;5035443;28;20064;-76
2021/07/06 02:37:01;;;;;;;10.70;2.72;;;14.80;90.60;;;;;;5043478;28;20029;-75
2021/07/06 02:39:26;;;;;;;10.15;2.70;;;14.80;90.90;;;;;;5054858;28;20104;-76
2021/07/06 02:41:52;;;;;;;11.52;2.60;;;14.80;91.00;;;;;;5054956;28;20104;-75
2021/07/06 02:44:18;;;;;;;13.32;2.83;;;14.80;91.00;;;;;;5054999;28;20045;-77
2021/07/06 02:46:43;;;;;;;11.43;2.75;;;14.70;91.00;;;;;;5055050;28;20496;-76
2021/07/06 02:49:09;;;;;;;11.98;2.78;;;14.70;90.80;;;;;;5054752;28;20021;-74
2021/07/06 02:51:35;;;;;;;12.55;2.80;;;14.70;91.10;;;;;;5054831;28;20031;-75
2021/07/06 02:54:01;;;;;;;11.05;2.97;;;14.80;91.10;;;;;;5055066;28;20025;-75
2021/07/06 02:56:27;;;;;;;10.90;2.83;;;14.80;91.30;;;;;;5054684;28;20104;-76
2021/07/06 02:58:52;;;;;;;9.30;2.58;;;14.80;91.30;;;;;;5054461;28;20556;-77
2021/07/06 03:01:18;;;;;;;11.63;2.58;;;14.80;91.30;;;;;;5054603;28;20021;-75
2021/07/06 03:03:44;;;;;;;10.88;2.25;;;14.80;91.50;;;;;;5054916;28;20507;-75
2021/07/06 03:06:09;;;;;;;7.75;1.95;;;14.80;91.60;;;;;;5054533;28;20499;-74
2021/07/06 03:08:35;;;;;;;9.02;2.10;;;14.70;91.80;;;;;;5036231;28;20092;-75
2021/07/06 03:11:01;;;;;;;11.05;2.58;;;14.70;92.10;;;;;;5054495;28;20025;-74
2021/07/06 03:13:27;;;;;;;8.32;1.90;;;14.70;92.30;;;;;;5054642;28;20017;-76
2021/07/06 03:15:52;;;;;;;6.60;1.70;;;14.70;92.40;;;;;;5054459;28;20036;-76
2021/07/06 03:18:18;;;;;;;5.47;1.77;;;14.70;92.50;;;;;;5053871;28;20104;-77
2021/07/06 03:20:44;;;;;;;10.50;1.90;;;14.80;92.60;;;;;;5053949;28;20139;-73
2021/07/06 03:23:10;;;;;;;10.43;2.30;;;14.80;92.60;;;;;;5054343;28;20025;-75
2021/07/06 03:25:36;;;;;;;8.90;1.80;;;14.70;92.80;;;;;;5053942;28;20079;-76
2021/07/06 03:28:03;;;;;;;11.10;2.42;;;14.70;93.00;;;;;;5053994;28;20021;-75
2021/07/06 03:30:33;;;;;;;10.40;2.15;;;14.70;93.00;;;;;;5054458;28;20032;-76
2021/07/06 03:33:01;;;;;;;6.47;1.95;;;14.70;93.10;;;;;;5053943;28;20013;-75
2021/07/06 03:35:27;;;;;;;10.32;2.00;;;14.70;93.20;;;;;;5054239;28;20057;-77
2021/07/06 03:37:54;;;;;;;7.13;2.15;;;14.70;93.30;;;;;;5037913;28;20021;-77
2021/07/06 03:40:20;;;;;;;11.95;1.90;;;14.70;93.30;;;;;;5034035;28;20076;-74
2021/07/06 03:42:46;;;;;;;5.88;2.15;;;14.70;93.30;;;;;;5033789;28;20490;-74
2021/07/06 03:45:14;;;;;;;7.95;2.17;;;14.70;93.40;;;;;;5033954;28;20071;-76
2021/07/06 03:47:40;;;;;;;8.32;2.10;;;14.70;93.40;;;;;;5033800;28;20113;-76
2021/07/06 03:50:10;;;;;;;8.63;2.20;;;14.70;93.40;;;;;;5033895;28;20101;-74
2021/07/06 03:52:36;;;;;;;9.50;2.38;;;14.70;93.50;;;;;;5034163;28;20017;-78
2021/07/06 03:55:02;;;;;;;10.80;2.10;;;14.70;93.40;;;;;;5033728;28;20196;-75
2021/07/06 03:57:28;;;;;;;11.18;2.67;;;14.70;93.40;;;;;;5035117;28;20032;-75
2021/07/06 04:00:05;;;;;;;15.50;2.53;;;14.80;93.40;;;;;;5036261;28;20104;-75
2021/07/06 04:02:30;;;;;;;10.18;2.70;;;14.80;93.50;;;;;;5036738;28;20508;-76
2021/07/06 04:04:56;;;;;;;13.77;2.30;;;14.80;93.30;;;;;;5033513;28;20030;-77
2021/07/06 04:07:22;;;;;;;14.20;3.15;;;14.80;93.20;;;;;;5015631;28;20401;-75
2021/07/06 04:09:48;;;;;;;11.60;2.65;;;14.90;93.20;;;;;;5033516;28;20022;-79
2021/07/06 04:12:13;;;;;;;12.75;2.95;;;14.90;93.30;;;;;;5033424;28;20029;-77
2021/07/06 04:14:39;;;;;;;13.75;3.08;;;14.80;93.30;;;;;;5033574;28;20022;-76
2021/07/06 04:17:05;;;;;;;9.55;2.78;;;14.80;93.40;;;;;;5033382;28;20075;-78
2021/07/06 04:19:30;;;;;;;13.73;2.83;;;14.80;93.40;;;;;;5032979;28;20156;-78
2021/07/06 04:21:56;;;;;;;11.52;3.08;;;14.80;93.30;;;;;;5033239;28;20026;-75
2021/07/06 04:24:21;;;;;;;12.18;3.45;;;14.80;93.20;;;;;;5033126;28;20497;-78
2021/07/06 04:26:47;;;;;;;11.85;2.50;;;14.80;93.10;;;;;;5033152;28;20033;-76
2021/07/06 04:29:13;;;;;;;11.20;2.28;;;14.90;93.00;;;;;;5032729;28;20032;-75
2021/07/06 04:31:38;;;;;;;8.57;2.15;;;14.80;93.00;;;;;;5032334;28;20119;-74
2021/07/06 04:34:04;;;;;;;10.38;2.13;;;14.80;93.20;;;;;;5033097;28;20056;-75
2021/07/06 04:36:30;;;;;;;10.00;2.53;;;14.80;93.20;;;;;;5036951;28;20025;-74
2021/07/06 04:38:56;;;;;;;5.82;2.10;;;14.80;93.30;;;;;;5052772;28;20029;-76
2021/07/06 04:41:22;;;;;;;5.97;1.95;;;14.80;93.10;;;;;;5052869;28;20025;-73
2021/07/06 04:43:47;;;;;;;12.52;2.28;;;14.80;93.20;;;;;;5052717;28;20036;-76
2021/07/06 04:46:13;;;;;;;11.45;1.95;;;14.80;93.20;;;;;;5052675;28;20032;-77
2021/07/06 04:48:39;;;;;;;8.63;2.45;;;14.70;93.20;;;;;;5052654;28;20032;-76
2021/07/06 04:51:07;;;;;;;9.88;2.17;;;14.80;93.20;;;;;;5052701;28;20025;-76
2021/07/06 04:53:33;;;;;;;7.07;2.08;;;14.80;93.00;;;;;;5052568;28;20555;-74
2021/07/06 04:55:59;;;;;;;4.60;1.88;;;14.80;93.00;;;;;;5052441;28;20151;-75
2021/07/06 04:58:25;;;;;;;6.53;2.00;;;14.90;92.90;;;;;;5052602;28;20033;-75
2021/07/06 05:00:51;;;;;;;9.38;1.88;;;14.80;93.00;;;;;;5052494;28;20028;-77
2021/07/06 05:03:17;;;;;;;8.18;2.35;;;14.80;93.10;;;;;;5052586;28;20029;-75
2021/07/06 05:05:43;;;;;;;8.82;1.98;;;14.90;92.90;;;;;;5052719;28;20032;-75
2021/07/06 05:08:11;;;;;;;7.30;1.83;;;15.00;92.80;;;;;;5052223;28;20154;-77
2021/07/06 05:10:37;;;;;;;5.90;1.42;;;14.90;92.60;;;;;;5052474;28;20025;-73
2021/07/06 05:13:04;;;;;;;11.70;2.13;;;15.00;92.50;;;;;;5052521;28;20362;-77
2021/07/06 05:15:29;;;;;;;6.53;1.60;;;15.00;92.60;;;;;;5052425;28;20025;-78
2021/07/06 05:17:55;;;;;;;6.78;2.17;;;15.00;92.50;;;;;;5052422;28;20033;-76
2021/07/06 05:20:21;;;;;;;6.05;1.98;;;15.00;92.50;;;;;;5052061;28;20099;-77
2021/07/06 05:22:47;;;;;;;7.28;1.90;;;15.00;92.50;;;;;;5034529;28;20419;-76
2021/07/06 05:25:13;;;;;;;6.53;2.08;;;15.00;92.40;;;;;;5052161;28;20116;-75
2021/07/06 05:27:39;;;;;;;6.40;2.10;;;15.10;92.60;;;;;;5052377;28;20470;-75
2021/07/06 05:30:07;;;;;;;9.48;2.17;;;15.30;92.30;;;;;;5052329;28;20028;-78
2021/07/06 05:32:34;;;;;;;11.80;2.50;;;15.40;92.10;;;;;;5052220;28;20103;-76
2021/07/06 05:34:59;;;;;;;6.90;1.67;;;15.60;91.70;;;;;;5053164;28;20028;-76
2021/07/06 05:37:25;;;;;;;6.65;2.17;;;15.70;91.30;;;;;;5053539;28;20029;-77
2021/07/06 05:39:51;;;;;;;7.32;1.67;;;15.60;91.70;;;;;;5052344;28;20025;-74
2021/07/06 05:42:16;;;;;;;8.30;2.50;;;15.40;91.80;;;;;;5037188;28;20480;-75
2021/07/06 05:44:46;;;;;;;7.80;2.78;;;15.40;91.90;;;;;;5056704;28;20029;-75
2021/07/06 05:47:12;;;;;;;8.85;1.83;;;15.30;91.90;;;;;;5057367;28;20025;-77
2021/07/06 05:49:37;;;;;;;10.43;1.85;;;15.30;92.20;;;;;;5056593;28;20028;-76
2021/07/06 05:52:04;;;;;;;7.05;1.50;;;15.40;92.00;;;;;;5057036;28;20032;-76
2021/07/06 05:54:29;;;;;;;9.25;1.58;;;15.40;92.00;;;;;;5057023;28;20025;-77
2021/07/06 05:56:55;;;;;;;6.40;1.70;;;15.50;92.00;;;;;;5057351;28;20522;-75
2021/07/06 05:59:22;;;;;;;6.18;1.73;;;15.50;92.10;;;;;;5056708;28;20104;-75
2021/07/06 06:01:47;;;;;;;9.23;1.60;;;15.50;91.80;;;;;;5056647;28;20029;-75
2021/07/06 06:04:13;;;;;;;6.53;1.25;;;15.50;92.10;;;;;;5056972;28;20024;-76
2021/07/06 06:06:39;;;;;;;7.32;2.13;;;15.50;91.80;;;;;;5057254;28;20025;-74
2021/07/06 06:09:05;;;;;;;5.95;1.60;;;15.50;91.70;;;;;;5057077;28;20078;-77
2021/07/06 06:11:30;;;;;;;6.72;1.70;;;15.70;91.50;;;;;;5038920;28;20028;-76
2021/07/06 06:13:56;;;;;;;11.27;2.25;;;16.20;90.70;;;;;;5056854;28;20021;-74
2021/07/06 06:16:22;;;;;;;10.25;1.75;;;16.50;90.20;;;;;;5057436;28;20025;-76
2021/07/06 06:18:54;;;;;;;6.25;1.88;;;16.40;90.20;;;;;;5056983;28;20074;-76
2021/07/06 06:21:25;;;;;;;5.57;1.58;;;16.30;90.10;;;;;;5056744;28;20032;-75
2021/07/06 06:23:51;;;;;;;6.90;1.58;;;16.20;90.50;;;;;;5057047;28;20017;-74
2021/07/06 06:26:17;;;;;;;5.80;1.25;;;16.10;90.50;;;;;;5056948;28;20068;-74
2021/07/06 06:28:43;;;;;;;6.18;1.55;;;16.10;90.70;;;;;;5057139;28;20025;-76
2021/07/06 06:31:08;;;;;;;8.60;1.52;;;16.10;90.90;;;;;;5057014;28;20033;-75
2021/07/06 06:33:34;;;;;;;5.65;1.55;;;16.10;90.90;;;;;;5059142;28;20021;-75
2021/07/06 06:36:00;;;;;;;7.70;1.73;;;16.00;90.90;;;;;;5059394;28;20082;-74
2021/07/06 06:38:25;;;;;;;3.60;1.23;;;16.00;90.80;;;;;;5036993;28;20025;-75
2021/07/06 06:40:52;;;;;;;3.72;1.45;;;16.00;90.80;;;;;;5036712;28;20440;-77
2021/07/06 06:43:18;;;;;;;5.28;1.20;;;16.10;90.40;;;;;;5036251;28;20026;-77
2021/07/06 06:45:45;;;;;;;5.20;1.50;;;16.10;90.80;;;;;;5036835;28;20029;-76
2021/07/06 06:48:11;;;;;;;6.90;1.42;;;16.50;90.10;;;;;;5036927;28;20064;-78
2021/07/06 06:50:37;;;;;;;6.13;1.40;;;16.90;88.50;;;;;;5036499;28;20029;-74
2021/07/06 06:53:03;;;;;;;5.05;1.25;;;16.90;87.90;;;;;;5035606;28;20350;-77
2021/07/06 06:55:29;;;;;;;6.13;1.20;;;16.70;88.20;;;;;;5035825;28;20482;-78
2021/07/06 06:57:54;;;;;;;6.22;1.33;;;17.20;86.90;;;;;;5034864;28;20029;-80
2021/07/06 07:00:23;;;;;;;6.00;1.50;;;17.70;85.20;;;;;;5035912;28;20025;-78
2021/07/06 07:02:50;;;;;;;7.10;1.42;;;17.80;83.90;;;;;;5035117;28;20398;-76
2021/07/06 07:05:16;;;;;;;6.28;1.83;;;18.00;84.30;;;;;;5034173;28;20493;-79
2021/07/06 07:07:43;;;;;;;8.32;2.00;;;18.00;83.50;;;;;;5044443;28;20444;-78
2021/07/06 07:10:11;;;;;;;7.25;1.83;;;18.00;83.00;;;;;;5028434;28;20068;-82
2021/07/06 07:12:37;;;;;;;9.10;2.17;;;17.70;83.70;;;;;;5041330;28;20013;-79
2021/07/06 07:15:04;;;;;;;7.65;2.08;;;17.50;84.20;;;;;;5054642;28;20063;-75
2021/07/06 07:17:31;;;;;;;7.65;2.30;;;17.20;85.80;;;;;;5056032;28;20021;-84
2021/07/06 07:19:57;;;;;;;9.10;2.03;;;17.20;85.90;;;;;;5037572;28;20025;-84
2021/07/06 07:22:23;;;;;;;6.43;1.50;;;17.50;85.80;;;;;;5037853;28;20128;-81
2021/07/06 07:24:49;;;;;;;4.47;1.50;;;17.80;84.20;;;;;;5042564;28;20136;-78
2021/07/06 07:27:14;;;;;;;7.35;1.83;;;17.90;83.10;;;;;;5035378;28;20509;-79
2021/07/06 07:29:40;;;;;;;6.78;2.05;;;17.90;83.20;;;;;;5054552;28;20528;-83
2021/07/06 07:32:06;;;;;;;10.40;2.33;;;18.10;82.80;;;;;;5038029;28;20030;-80
2021/07/06 07:34:33;;;;;;;9.48;2.28;;;18.20;82.10;;;;;;5035211;28;20030;-81
2021/07/06 07:37:00;;;;;;;5.72;1.40;;;18.20;80.90;;;;;;5018252;28;20036;-82
2021/07/06 07:39:26;;;;;;;9.80;2.42;;;18.20;81.50;;;;;;5052641;28;20021;-79
2021/07/06 07:41:52;;;;;;;6.65;2.00;;;18.40;82.40;;;;;;5055081;28;20053;-77
2021/07/06 07:44:17;;;;;;;5.18;1.77;;;18.50;80.70;;;;;;5054159;28;20131;-77
2021/07/06 07:46:43;;;;;;;8.05;1.88;;;19.00;80.00;;;;;;5055453;28;20076;-82
2021/07/06 07:49:09;;;;;;;7.10;2.22;;;19.10;79.10;;;;;;5036548;28;20032;-81
2021/07/06 07:51:35;;;;;;;8.35;2.25;;;19.60;76.30;;;;;;5054763;28;20017;-82
2021/07/06 07:54:01;;;;;;;7.05;2.08;;;19.70;75.50;;;;;;5052606;28;20025;-81
2021/07/06 07:56:26;;;;;;;9.25;1.98;;;19.50;74.70;;;;;;5024168;28;20397;-79
2021/07/06 07:58:52;;;;;;;7.28;2.30;;;19.70;75.50;;;;;;5053489;28;20036;-83
2021/07/06 08:01:18;;;;;;;10.25;2.40;;;19.90;75.30;;;;;;5055134;28;20024;-82
2021/07/06 08:03:44;;;;;;;5.03;1.70;;;19.90;73.40;;;;;;5054537;28;20416;-78
2021/07/06 08:06:10;;;;;;;8.43;2.50;;;19.70;73.70;;;;;;5053347;28;20032;-79
2021/07/06 08:08:36;;;;;;;6.90;2.38;;;19.50;72.60;;;;;;5054492;28;20582;-78
2021/07/06 08:11:02;;;;;;;9.02;2.08;;;19.20;74.70;;;;;;5054216;28;20021;-80
2021/07/06 08:13:28;;;;;;;9.50;1.90;;;19.40;75.00;;;;;;5034428;28;20496;-81
2021/07/06 08:15:55;;;;;;;8.55;2.35;;;19.90;71.00;;;;;;5016666;28;20022;-83
2021/07/06 08:18:21;;;;;;;11.57;2.72;;;20.20;70.10;;;;;;5053008;28;20088;-80
2021/07/06 08:20:48;;;;;;;8.65;2.40;;;20.40;68.30;;;;;;5054195;28;20099;-75
2021/07/06 08:23:14;;;;;;;8.80;2.17;;;20.80;67.50;;;;;;5053154;28;20025;-76
2021/07/06 08:25:40;;;;;;;7.25;1.80;;;21.10;65.30;;;;;;5054163;28;20584;-81
2021/07/06 08:28:05;;;;;;;7.38;1.88;;;21.40;63.00;;;;;;5045894;28;20049;-80
2021/07/06 08:30:32;;;;;;;12.05;2.10;;;21.60;63.20;;;;;;5034106;28;20022;-74
2021/07/06 08:32:57;;;;;;;7.00;1.92;;;22.00;61.80;;;;;;5040167;28;20489;-85
2021/07/06 08:35:23;;;;;;;7.25;1.73;;;22.40;58.60;;;;;;5053696;28;20028;-81
2021/07/06 08:37:49;;;;;;;7.20;1.83;;;22.80;57.50;;;;;;5048059;28;20104;-82
2021/07/06 08:40:17;;;;;;;5.25;1.60;;;23.50;55.00;;;;;;5053865;28;20481;-81
2021/07/06 08:42:43;;;;;;;7.45;2.03;;;23.00;54.50;;;;;;5053891;28;20512;-76
2021/07/06 08:45:11;;;;;;;6.03;1.70;;;22.40;56.10;;;;;;5053257;28;20037;-76
2021/07/06 08:47:37;;;;;;;4.45;1.23;;;22.00;58.20;;;;;;5053768;28;20025;-81
2021/07/06 08:50:07;;;;;;;7.55;1.80;;;21.40;59.80;;;;;;5054163;28;20032;-76
2021/07/06 08:52:37;;;;;;;8.07;2.25;;;21.00;60.30;;;;;;5053664;28;20552;-79
2021/07/06 08:55:04;;;;;;;6.85;1.70;;;21.20;59.60;;;;;;5035813;28;20032;-78
2021/07/06 08:57:30;;;;;;;9.32;2.10;;;20.80;60.60;;;;;;5053749;28;20100;-75
2021/07/06 08:59:56;;;;;;;4.32;1.77;;;20.20;63.30;;;;;;5054068;28;20048;-78
2021/07/06 09:02:22;;;;;;;8.70;1.98;;;19.80;67.70;;;;;;5053839;28;20021;-76
2021/07/06 09:04:50;;;;;;;8.38;1.70;;;20.10;68.30;;;;;;5053239;28;20351;-77
2021/07/06 09:07:17;;;;;;;5.00;1.52;;;21.80;61.80;;;;;;5047787;28;20029;-82
2021/07/06 09:09:43;;;;;;;7.75;2.45;;;23.00;57.50;;;;;;5015708;28;20388;-77
2021/07/06 09:12:11;;;;;;;4.93;2.05;;;23.40;54.80;;;;;;5036660;28;20072;-81
2021/07/06 09:14:44;;;;;;;5.57;1.73;;;23.80;54.00;;;;;;5038654;28;20025;-81
2021/07/06 09:17:22;;;;;;;6.53;1.60;;;24.90;51.20;;;;;;5041443;28;20059;-82
2021/07/06 09:19:54;;;;;;;6.53;1.77;;;25.10;49.90;;;;;;5044824;28;20021;-80
2021/07/06 09:22:24;;;;;;;5.18;1.60;;;25.40;50.10;;;;;;5040525;28;20035;-76
2021/07/06 09:25:05;;;;;;;5.75;1.95;;;25.40;48.40;;;;;;5049305;28;20053;-76
2021/07/06 09:27:39;;;;;;;6.70;1.80;;;26.10;47.20;;;;;;5039371;28;20555;-75
2021/07/06 09:30:12;;;;;;;5.20;1.52;;;27.10;45.90;;;;;;5033116;28;20064;-77
2021/07/06 09:32:45;;;;;;;5.85;1.65;;;27.40;43.80;;;;;;5033286;28;20097;-76
2021/07/06 09:35:14;;;;;;;5.28;1.60;;;28.00;43.30;;;;;;5034967;28;20091;-76
2021/07/06 09:37:44;;;;;;;2.47;1.27;;;27.60;43.90;;;;;;5035544;28;20037;-77
2021/07/06 09:40:38;;;;;;;5.90;1.50;;;28.00;42.50;;;;;;5034242;28;20539;-77
2021/07/06 09:43:30;;;;;;;4.78;1.70;;;28.60;40.90;;;;;;5052645;28;20033;-76
2021/07/06 09:45:57;;;;;;;6.28;1.40;;;28.50;41.30;;;;;;5053121;28;20025;-77
2021/07/06 09:48:23;;;;;;;3.60;1.35;;;27.10;43.10;;;;;;5053428;28;20592;-80
2021/07/06 09:50:49;;;;;;;4.60;1.27;;;25.90;45.40;;;;;;5048228;28;20018;-77
2021/07/06 09:53:29;;;;;;;2.70;1.05;;;26.10;46.40;;;;;;5035132;28;20494;-76
2021/07/06 09:55:55;;;;;;;5.13;1.60;;;28.20;42.50;;;;;;5041845;28;20025;-77
2021/07/06 09:58:21;;;;;;;7.47;1.45;;;29.60;39.30;;;;;;5033877;28;20034;-81
2021/07/06 10:00:48;;;;;;;8.52;1.60;;;29.90;39.10;;;;;;5050128;28;20472;-80
2021/07/06 10:03:15;;;;;;;5.72;1.38;;;30.30;38.10;;;;;;5052322;28;20021;-79
2021/07/06 10:05:43;;;;;;;6.07;2.22;;;30.60;36.90;;;;;;5053183;28;20040;-80
2021/07/06 10:08:10;;;;;;;4.83;1.40;;;30.90;36.90;;;;;;5052829;28;20021;-77
2021/07/06 10:10:37;;;;;;;6.72;1.50;;;29.60;37.70;;;;;;5038958;28;20024;-79
2021/07/06 10:13:04;;;;;;;8.35;1.52;;;27.40;40.50;;;;;;5032673;28;20041;-78
2021/07/06 10:15:31;;;;;;;6.03;1.52;;;26.50;42.90;;;;;;5040352;28;20049;-83
2021/07/06 10:17:58;;;;;;;4.43;1.17;;;26.10;43.80;;;;;;5033988;28;20342;-81
2021/07/06 10:20:29;;;;;;;7.45;1.67;;;26.20;43.50;;;;;;5053184;28;20031;-81
2021/07/06 10:22:58;;;;;;;5.82;1.50;;;26.30;44.70;;;;;;5052845;28;20113;-77
2021/07/06 10:25:33;;;;;;;3.57;1.20;;;28.10;42.50;;;;;;5049690;28;20045;-79
2021/07/06 10:28:01;;;;;;;7.18;1.63;;;32.40;36.50;;;;;;5051619;28;20033;-77
2021/07/06 10:30:32;;;;;;;4.35;1.50;;;35.60;32.90;;;;;;5054322;28;20021;-79
2021/07/06 10:32:59;;;;;;;3.53;1.05;;;36.50;31.60;;;;;;5054717;28;20021;-79
2021/07/06 10:35:37;;;;;;;3.67;1.30;;;37.60;28.70;;;;;;5055511;28;20021;-79
2021/07/06 10:40:54;;;;;;;3.78;1.17;;;35.60;29.80;;;;;;5056455;28;20029;-77
2021/07/06 10:43:38;;;;;;;3.42;1.20;;;36.50;29.60;;;;;;5056082;28;20025;-79
2021/07/06 10:46:22;;;;;;;5.32;1.27;;;36.20;29.50;;;;;;5055675;28;20449;-76
2021/07/06 10:49:13;;;;;;;1.83;0.77;;;36.70;29.20;;;;;;5055936;28;20028;-77
2021/07/06 10:51:38;;;;;;;4.22;1.50;;;36.20;29.10;;;;;;5055947;28;20013;-76
2021/07/06 10:54:06;;;;;;;5.13;1.30;;;35.70;29.80;;;;;;5055828;28;20025;-78
2021/07/06 10:56:37;;;;;;;4.22;1.23;;;37.20;28.70;;;;;;5055677;28;20100;-78
2021/07/06 10:59:06;;;;;;;3.90;1.17;;;38.80;27.60;;;;;;5055835;28;20116;-78
2021/07/06 11:01:38;;;;;;;2.72;1.13;;;36.80;28.60;;;;;;5054474;28;20021;-78
2021/07/06 11:04:05;;;;;;;2.05;0.90;;;32.60;33.10;;;;;;5035750;28;20441;-77
2021/07/06 11:06:46;;;;;;;3.58;1.27;;;32.90;33.50;;;;;;5035573;28;20029;-77
2021/07/06 11:09:31;;;;;;;5.00;1.40;;;31.60;34.40;;;;;;5035525;28;20060;-76
2021/07/06 11:12:24;;;;;;;5.30;1.30;;;30.50;36.70;;;;;;5035833;28;20021;-76
2021/07/06 11:15:03;;;;;;;6.70;1.70;;;29.70;38.60;;;;;;5035564;28;20029;-77
2021/07/06 11:17:36;;;;;;;3.58;1.20;;;28.40;40.00;;;;;;5035603;28;20018;-76
2021/07/06 11:20:05;;;;;;;5.18;1.42;;;27.20;41.00;;;;;;5035558;28;20029;-75
2021/07/06 11:22:54;;;;;;;3.35;1.30;;;26.20;42.50;;;;;;5035067;28;20490;-74
2021/07/06 11:25:41;;;;;;;3.00;1.23;;;25.30;44.30;;;;;;5037234;28;20045;-75
2021/07/06 11:28:10;;;;;;;5.15;1.55;;;24.60;46.00;;;;;;5054785;28;20119;-77
2021/07/06 11:30:52;;;;;;;6.63;1.80;;;23.70;47.40;;;;;;5055167;28;20028;-76
2021/07/06 11:33:33;;;;;;;5.28;1.85;;;23.10;49.60;;;;;;5054974;28;20301;-77
2021/07/06 11:36:07;;;;;;;5.57;1.70;;;23.40;49.00;;;;;;5055217;28;20028;-76
2021/07/06 11:38:38;;;;;;;6.95;1.70;;;23.90;48.20;;;;;;5055086;28;20104;-74
2021/07/06 11:41:05;;;;;;;6.18;2.03;;;24.10;47.90;;;;;;5054907;28;20029;-75
2021/07/06 11:43:33;;;;;;;5.80;1.92;;;24.10;47.60;;;;;;5054746;28;20090;-77
2021/07/06 11:46:03;;;;;;;6.55;2.35;;;23.90;48.70;;;;;;5054514;28;20388;-77
2021/07/06 11:48:31;;;;;;;6.13;1.85;;;24.00;48.60;;;;;;5054858;28;20029;-78
2021/07/06 11:51:01;;;;;;;10.60;2.45;;;24.00;49.40;;;;;;5054847;28;20021;-74
2021/07/06 11:53:28;;;;;;;;;;;24.00;48.90;;;;;;5055129;28;20053;-76
2021/07/06 11:55:55;;;;;;;7.82;2.47;;;23.70;49.00;;;;;;5065555;28;19912;-76
2021/07/06 11:58:26;;;;;;;7.35;2.08;;;23.10;50.40;;;;;;5063111;28;20042;-78
2021/07/06 12:00:53;;;;;;;5.90;2.03;;;22.70;51.90;;;;;;5054706;28;20438;-75
2021/07/06 12:03:29;;;;;;;3.75;1.70;;;22.50;52.90;;;;;;5070129;28;20028;-75
2021/07/06 12:06:06;;;;;;;10.48;2.70;;;22.30;55.10;;;;;;5074496;28;20082;-76
2021/07/06 12:08:37;;;;;;;9.02;2.10;;;22.50;55.70;;;;;;5074316;28;20021;-76
2021/07/06 12:11:20;;;;;;;6.60;2.88;;;22.50;54.30;;;;;;5074531;28;20029;-77
2021/07/06 12:13:48;;;;;;;7.18;2.00;;;22.70;53.80;;;;;;5074479;28;20118;-78
2021/07/06 12:16:17;;;;;;;10.57;2.33;;;22.90;52.50;;;;;;5074335;28;20029;-75
2021/07/06 12:18:56;;;;;;;7.93;2.37;;;22.70;52.40;;;;;;5072993;28;20035;-76
2021/07/06 12:21:27;;;;;;;8.30;2.22;;;22.60;52.20;;;;;;5074141;28;20031;-76
2021/07/06 12:23:55;;;;;;;6.57;2.05;;;22.40;53.30;;;;;;5074149;28;20480;-76
2021/07/06 12:26:22;;;;;;;4.43;1.90;;;22.30;53.60;;;;;;5073988;28;20078;-76
2021/07/06 12:28:48;;;;;;;6.07;1.65;;;22.00;54.20;;;;;;5074049;28;20502;-75
2021/07/06 12:31:22;;;;;;;4.70;2.10;;;22.20;54.40;;;;;;5074001;28;20023;-78
2021/07/06 12:34:03;;;;;;;4.97;1.83;;;22.60;53.90;;;;;;5073819;28;20028;-75
2021/07/06 12:36:40;;;;;;;8.75;2.15;;;22.50;54.10;;;;;;5074131;28;20043;-77
2021/07/06 12:39:14;;;;;;;5.28;2.35;;;22.10;55.60;;;;;;5074447;28;20028;-75
2021/07/06 12:42:03;;;;;;;5.78;1.67;;;21.80;56.50;;;;;;5073733;28;20423;-77
2021/07/06 12:44:35;;;;;;;4.80;2.08;;;21.70;56.50;;;;;;5073694;28;20035;-77
2021/07/06 12:47:19;;;;;;;7.10;2.35;;;21.80;56.70;;;;;;5073321;28;20068;-76
2021/07/06 12:49:56;;;;;;;5.53;2.00;;;21.60;57.40;;;;;;5073783;28;20031;-75